createdAt,value
2022-12-29T00:02:05.268Z,87.62
2022-12-29T00:04:32.302Z,87.53
2022-12-29T00:07:05.172Z,87.34
2022-12-29T00:09:39.309Z,87.40
2022-12-29T00:12:13.023Z,87.15
2022-12-29T00:14:58.472Z,87.02
2022-12-29T00:17:32.038Z,86.22
2022-12-29T00:20:24.056Z,86.35
2022-12-29T00:23:35.997Z,86.25
2022-12-29T00:26:42.073Z,86.38
2022-12-29T00:29:34.131Z,86.38
2022-12-29T00:32:26.115Z,86.46
2022-12-29T00:35:18.316Z,86.33
2022-12-29T00:38:16.993Z,86.61
2022-12-29T00:41:10.228Z,86.52
2022-12-29T00:44:02.053Z,85.90
2022-12-29T00:46:35.087Z,86.00
2022-12-29T00:49:27.330Z,85.98
2022-12-29T00:52:02.049Z,86.10
2022-12-29T00:54:33.317Z,86.18
2022-12-29T00:57:09.301Z,86.05
2022-12-29T00:59:37.451Z,86.09
2022-12-29T01:02:11.473Z,86.10
2022-12-29T01:04:38.522Z,86.28
2022-12-29T01:07:12.222Z,85.98
2022-12-29T01:09:57.457Z,85.97
2022-12-29T01:12:48.105Z,85.67
2022-12-29T01:15:16.447Z,85.87
2022-12-29T01:17:50.135Z,86.06
2022-12-29T01:20:17.208Z,86.14
2022-12-29T01:22:45.127Z,85.98
2022-12-29T01:25:19.116Z,86.20
2022-12-29T01:27:53.308Z,86.17
2022-12-29T01:30:26.685Z,85.89
2022-12-29T01:32:53.549Z,85.54
2022-12-29T01:35:27.102Z,85.50
2022-12-29T01:37:54.046Z,85.86
2022-12-29T01:40:28.343Z,85.45
2022-12-29T01:42:55.315Z,85.79
2022-12-29T01:45:29.537Z,85.65
2022-12-29T01:48:11.301Z,85.99
2022-12-29T01:50:49.386Z,86.14
2022-12-29T01:53:37.394Z,86.82
2022-12-29T01:56:15.317Z,87.28
2022-12-29T01:58:47.025Z,87.54
2022-12-29T02:01:22.373Z,87.95
2022-12-29T02:03:57.199Z,88.19
2022-12-29T02:06:27.768Z,88.30
2022-12-29T02:09:03.161Z,88.43
2022-12-29T02:11:31.119Z,88.79
2022-12-29T02:14:05.240Z,89.23
2022-12-29T02:16:47.282Z,89.62
2022-12-29T02:19:42.175Z,90.02
2022-12-29T02:22:18.343Z,89.95
2022-12-29T02:25:03.263Z,90.68
2022-12-29T02:28:14.379Z,90.62
2022-12-29T02:30:59.438Z,90.94
2022-12-29T02:34:08.519Z,90.41
2022-12-29T02:36:55.428Z,90.44
2022-12-29T02:39:36.127Z,90.13
2022-12-29T02:42:20.149Z,90.02
2022-12-29T02:45:01.405Z,89.72
2022-12-29T02:47:43.355Z,90.21
2022-12-29T02:50:28.049Z,89.97
2022-12-29T02:53:07.247Z,90.12
2022-12-29T02:55:34.202Z,89.99
2022-12-29T02:58:16.282Z,89.88
2022-12-29T03:01:19.001Z,89.47
2022-12-29T03:04:14.250Z,89.28
2022-12-29T03:07:02.119Z,89.45
2022-12-29T03:09:49.225Z,89.64
2022-12-29T03:13:07.439Z,89.66
2022-12-29T03:16:12.217Z,89.45
2022-12-29T03:18:55.307Z,89.71
2022-12-29T03:22:11.444Z,89.63
2022-12-29T03:24:57.209Z,89.63
2022-12-29T03:27:37.387Z,89.70
2022-12-29T03:30:13.212Z,89.46
2022-12-29T03:33:03.218Z,89.33
2022-12-29T03:35:44.537Z,89.17
2022-12-29T03:38:24.744Z,88.50
2022-12-29T03:41:03.452Z,88.13
2022-12-29T03:43:31.184Z,87.92
2022-12-29T03:46:10.445Z,87.58
2022-12-29T03:48:44.301Z,86.96
2022-12-29T03:51:18.284Z,86.67
2022-12-29T03:53:45.733Z,85.57
2022-12-29T03:56:19.216Z,85.21
2022-12-29T03:58:52.313Z,84.99
2022-12-29T04:01:26.473Z,84.86
2022-12-29T04:03:53.904Z,85.08
2022-12-29T04:06:27.299Z,85.83
2022-12-29T04:09:00.184Z,86.10
2022-12-29T04:11:32.906Z,86.56
2022-12-29T04:14:06.193Z,86.73
2022-12-29T04:16:39.271Z,86.46
2022-12-29T04:19:16.101Z,86.49
2022-12-29T04:21:50.383Z,86.49
2022-12-29T04:24:30.485Z,86.41
2022-12-29T04:27:04.367Z,86.38
2022-12-29T04:29:31.513Z,85.51
2022-12-29T04:32:05.121Z,85.52
2022-12-29T04:34:31.785Z,85.04
2022-12-29T04:37:05.173Z,84.93
2022-12-29T04:39:38.600Z,85.40
2022-12-29T04:42:06.024Z,85.27
2022-12-29T04:44:44.888Z,85.20
2022-12-29T04:47:18.393Z,84.94
2022-12-29T04:49:45.684Z,84.87
2022-12-29T04:52:19.382Z,84.83
2022-12-29T04:54:46.496Z,84.35
2022-12-29T04:57:20.506Z,84.57
2022-12-29T04:59:47.408Z,84.72
2022-12-29T05:02:14.646Z,84.60
2022-12-29T05:04:48.366Z,84.54
2022-12-29T05:07:15.393Z,84.54
2022-12-29T05:09:49.443Z,84.31
2022-12-29T05:12:16.723Z,84.32
2022-12-29T05:14:51.301Z,84.23
2022-12-29T05:17:18.360Z,84.22
2022-12-29T05:19:52.437Z,83.93
2022-12-29T05:22:19.821Z,83.92
2022-12-29T05:25:07.555Z,83.85
2022-12-29T05:27:34.430Z,84.56
2022-12-29T05:30:08.333Z,84.54
2022-12-29T05:32:35.381Z,84.48
2022-12-29T05:35:02.568Z,84.65
2022-12-29T05:37:36.431Z,85.60
2022-12-29T05:40:04.338Z,86.14
2022-12-29T05:42:38.291Z,86.12
2022-12-29T05:45:08.419Z,85.85
2022-12-29T05:47:42.428Z,85.77
2022-12-29T05:50:10.064Z,85.82
2022-12-29T05:52:43.380Z,86.13
2022-12-29T05:55:10.683Z,86.78
2022-12-29T05:57:44.287Z,86.86
2022-12-29T06:00:19.287Z,86.57
2022-12-29T06:02:46.920Z,86.41
2022-12-29T06:05:20.339Z,86.85
2022-12-29T06:07:47.142Z,86.51
2022-12-29T06:10:20.200Z,86.43
2022-12-29T06:12:48.350Z,86.36
2022-12-29T06:15:22.166Z,86.40
2022-12-29T06:17:49.081Z,86.53
2022-12-29T06:20:22.257Z,86.80
2022-12-29T06:22:49.213Z,86.89
2022-12-29T06:25:30.294Z,86.67
2022-12-29T06:28:03.323Z,86.41
2022-12-29T06:30:36.259Z,86.58
2022-12-29T06:33:03.715Z,86.64
2022-12-29T06:35:37.212Z,86.82
2022-12-29T06:38:10.500Z,87.27
2022-12-29T06:40:46.670Z,87.17
2022-12-29T06:43:20.313Z,87.34
2022-12-29T06:45:47.189Z,87.55
2022-12-29T06:48:20.563Z,87.58
2022-12-29T06:50:47.271Z,87.85
2022-12-29T06:53:20.505Z,88.10
2022-12-29T06:55:48.843Z,87.83
2022-12-29T06:58:29.660Z,87.92
2022-12-29T07:00:56.713Z,87.58
2022-12-29T07:03:30.454Z,87.08
2022-12-29T07:06:06.275Z,86.94
2022-12-29T07:08:39.444Z,86.49
2022-12-29T07:11:07.343Z,85.77
2022-12-29T07:13:40.375Z,85.40
2022-12-29T07:16:15.976Z,84.37
2022-12-29T07:18:51.416Z,84.39
2022-12-29T07:21:18.993Z,84.00
2022-12-29T07:23:52.514Z,83.49
2022-12-29T07:26:29.256Z,83.18
2022-12-29T07:29:09.351Z,83.45
2022-12-29T07:31:36.425Z,82.39
2022-12-29T07:34:03.391Z,82.86
2022-12-29T07:36:37.368Z,82.62
2022-12-29T07:39:04.639Z,81.81
2022-12-29T07:41:38.340Z,82.07
2022-12-29T07:44:05.390Z,81.95
2022-12-29T07:46:55.809Z,81.99
2022-12-29T07:49:31.316Z,82.24
2022-12-29T07:52:05.433Z,82.42
2022-12-29T07:54:32.815Z,82.45
2022-12-29T07:57:08.468Z,83.32
2022-12-29T07:59:42.420Z,83.53
2022-12-29T08:02:19.384Z,84.71
2022-12-29T08:04:46.296Z,84.63
2022-12-29T08:07:13.137Z,85.37
2022-12-29T08:09:46.420Z,85.17
2022-12-29T08:12:19.276Z,85.67
2022-12-29T08:14:53.451Z,86.24
2022-12-29T08:17:20.137Z,86.88
2022-12-29T08:19:53.286Z,87.40
2022-12-29T08:22:19.974Z,87.82
2022-12-29T08:25:00.361Z,87.36
2022-12-29T08:27:34.556Z,87.94
2022-12-29T08:30:08.362Z,87.86
2022-12-29T08:32:35.159Z,87.96
2022-12-29T08:35:08.495Z,88.02
2022-12-29T08:37:35.659Z,87.71
2022-12-29T08:40:11.314Z,87.75
2022-12-29T08:42:38.666Z,87.49
2022-12-29T08:45:06.052Z,86.43
2022-12-29T08:47:41.803Z,85.71
2022-12-29T08:50:09.208Z,84.94
2022-12-29T08:52:42.414Z,84.87
2022-12-29T08:55:16.602Z,85.13
2022-12-29T08:57:43.425Z,85.32
2022-12-29T09:00:19.579Z,83.56
2022-12-29T09:02:53.558Z,81.49
2022-12-29T09:05:21.121Z,81.41
2022-12-29T09:07:54.500Z,79.06
2022-12-29T09:10:21.581Z,78.55
2022-12-29T09:12:49.427Z,78.40
2022-12-29T09:15:23.595Z,78.58
2022-12-29T09:17:57.560Z,77.08
2022-12-29T09:20:24.450Z,76.39
2022-12-29T09:22:51.944Z,76.60
2022-12-29T09:25:28.089Z,75.92
2022-12-29T09:28:06.080Z,75.69
2022-12-29T09:30:39.466Z,75.28
2022-12-29T09:33:06.742Z,75.57
2022-12-29T09:35:40.467Z,74.40
2022-12-29T09:38:14.629Z,75.18
2022-12-29T09:40:49.038Z,74.79
2022-12-29T09:43:19.049Z,75.20
2022-12-29T09:46:12.195Z,76.04
2022-12-29T09:48:44.919Z,76.27
2022-12-29T09:51:25.361Z,76.33
2022-12-29T09:53:59.914Z,76.73
2022-12-29T09:56:34.513Z,77.55
2022-12-29T09:59:32.529Z,77.44
2022-12-29T10:03:05.578Z,77.05
2022-12-29T10:05:43.011Z,76.87
2022-12-29T10:08:19.398Z,77.00
2022-12-29T10:10:58.040Z,77.24
2022-12-29T10:13:44.403Z,77.52
2022-12-29T10:16:21.601Z,76.37
2022-12-29T10:18:58.621Z,76.61
2022-12-29T10:21:44.572Z,76.67
2022-12-29T10:24:20.876Z,76.05
2022-12-29T10:27:04.625Z,76.10
2022-12-29T10:29:36.589Z,75.79
2022-12-29T10:32:39.694Z,75.89
2022-12-29T10:35:20.001Z,75.86
2022-12-29T10:37:58.596Z,76.06
2022-12-29T10:40:38.138Z,75.25
2022-12-29T10:43:31.321Z,75.39
2022-12-29T10:46:06.858Z,75.18
2022-12-29T10:48:42.278Z,75.94
2022-12-29T10:51:16.364Z,76.09
2022-12-29T10:53:54.265Z,76.64
2022-12-29T10:56:47.270Z,77.34
2022-12-29T10:59:27.426Z,78.03
2022-12-29T11:02:06.097Z,78.10
2022-12-29T11:04:42.604Z,78.06
2022-12-29T11:07:18.960Z,78.31
2022-12-29T11:09:47.938Z,77.74
2022-12-29T11:12:27.424Z,78.31
2022-12-29T11:15:16.369Z,77.88
2022-12-29T11:17:49.510Z,77.87
2022-12-29T11:20:36.284Z,78.35
2022-12-29T11:23:11.353Z,78.41
2022-12-29T11:25:44.473Z,78.52
2022-12-29T11:28:18.173Z,78.41
2022-12-29T11:30:51.440Z,78.82
2022-12-29T11:33:18.428Z,78.69
2022-12-29T11:35:45.456Z,79.17
2022-12-29T11:38:29.590Z,79.15
2022-12-29T11:41:00.255Z,79.55
2022-12-29T11:43:45.661Z,79.52
2022-12-29T11:46:24.398Z,79.82
2022-12-29T11:48:58.366Z,79.26
2022-12-29T11:51:36.326Z,79.35
2022-12-29T11:54:12.578Z,80.22
2022-12-29T11:56:44.704Z,81.19
2022-12-29T11:59:39.566Z,81.98
2022-12-29T12:02:30.504Z,82.46
2022-12-29T12:05:19.448Z,82.35
2022-12-29T12:07:52.376Z,82.31
2022-12-29T12:10:31.462Z,81.95
2022-12-29T12:13:06.480Z,81.89
2022-12-29T12:15:50.141Z,81.18
2022-12-29T12:18:51.042Z,80.98
2022-12-29T12:21:29.453Z,80.72
2022-12-29T12:24:01.961Z,80.38
2022-12-29T12:27:00.363Z,80.35
2022-12-29T12:29:38.718Z,79.97
2022-12-29T12:32:21.499Z,79.58
2022-12-29T12:34:56.493Z,79.55
2022-12-29T12:38:05.475Z,79.90
2022-12-29T12:41:21.325Z,78.85
2022-12-29T12:43:58.529Z,79.43
2022-12-29T12:46:47.039Z,79.74
2022-12-29T12:49:35.436Z,80.26
2022-12-29T12:52:30.374Z,81.16
2022-12-29T12:55:07.790Z,81.54
2022-12-29T12:58:02.595Z,81.82
2022-12-29T13:00:39.414Z,82.07
2022-12-29T13:03:48.513Z,82.57
2022-12-29T13:06:47.406Z,81.65
2022-12-29T13:09:32.452Z,81.09
2022-12-29T13:12:02.129Z,81.67
2022-12-29T13:14:44.465Z,82.05
2022-12-29T13:17:36.429Z,81.74
2022-12-29T13:20:42.515Z,81.95
2022-12-29T13:23:33.382Z,82.29
2022-12-29T13:26:29.428Z,82.23
2022-12-29T13:29:24.603Z,82.62
2022-12-29T13:32:20.437Z,82.63
2022-12-29T13:35:08.499Z,82.72
2022-12-29T13:37:58.414Z,83.17
2022-12-29T13:40:27.631Z,83.00
2022-12-29T13:43:02.539Z,83.34
2022-12-29T13:45:32.331Z,83.33
2022-12-29T13:48:09.432Z,83.38
2022-12-29T13:50:46.442Z,83.18
2022-12-29T13:53:38.388Z,83.09
2022-12-29T13:56:21.600Z,82.89
2022-12-29T13:59:11.460Z,82.55
2022-12-29T14:02:09.345Z,82.09
2022-12-29T14:04:43.543Z,82.12
2022-12-29T14:07:18.686Z,81.77
2022-12-29T14:09:59.424Z,81.25
2022-12-29T14:12:31.544Z,80.26
2022-12-29T14:15:23.499Z,79.60
2022-12-29T14:18:10.876Z,79.05
2022-12-29T14:20:45.466Z,79.31
2022-12-29T14:23:12.136Z,79.26
2022-12-29T14:26:14.560Z,79.29
2022-12-29T14:28:53.478Z,79.78
2022-12-29T14:31:28.458Z,79.48
2022-12-29T14:34:14.493Z,78.83
2022-12-29T14:37:03.429Z,78.33
2022-12-29T14:39:42.302Z,78.58
2022-12-29T14:42:18.416Z,78.48
2022-12-29T14:45:17.873Z,78.40
2022-12-29T14:47:55.581Z,78.13
2022-12-29T14:50:22.135Z,78.15
2022-12-29T14:53:06.415Z,78.26
2022-12-29T14:55:51.008Z,78.31
2022-12-29T14:58:35.453Z,78.29
2022-12-29T15:01:03.200Z,78.19
2022-12-29T15:03:43.400Z,78.00
2022-12-29T15:06:14.543Z,77.65
2022-12-29T15:08:55.511Z,77.52
2022-12-29T15:11:44.502Z,77.83
2022-12-29T15:14:41.585Z,77.89
2022-12-29T15:17:33.568Z,77.75
2022-12-29T15:20:24.491Z,77.48
2022-12-29T15:23:02.321Z,77.34
2022-12-29T15:25:43.721Z,77.38
2022-12-29T15:28:26.407Z,77.88
2022-12-29T15:31:11.456Z,77.94
2022-12-29T15:33:41.739Z,77.59
2022-12-29T15:36:23.448Z,77.87
2022-12-29T15:38:50.895Z,77.71
2022-12-29T15:41:36.531Z,77.54
2022-12-29T15:44:22.056Z,77.83
2022-12-29T15:46:55.483Z,77.02
2022-12-29T15:49:32.581Z,79.27
2022-12-29T15:51:59.793Z,62.63
2022-12-29T15:54:37.520Z,50.88
2022-12-29T15:57:05.111Z,50.97
2022-12-29T15:59:41.454Z,64.31
2022-12-29T16:02:12.710Z,71.94
2022-12-29T16:05:16.200Z,74.70
2022-12-29T16:07:43.455Z,77.16
2022-12-29T16:10:41.568Z,78.18
2022-12-29T16:13:20.465Z,78.57
2022-12-29T16:15:55.823Z,79.37
2022-12-29T16:18:30.502Z,79.87
2022-12-29T16:21:09.747Z,80.16
2022-12-29T16:23:38.274Z,80.41
2022-12-29T16:26:25.501Z,80.74
2022-12-29T16:29:10.539Z,81.15
2022-12-29T16:31:51.897Z,81.62
2022-12-29T16:34:52.540Z,82.00
2022-12-29T16:37:28.620Z,82.23
2022-12-29T16:40:01.643Z,82.33
2022-12-29T16:42:50.596Z,82.63
2022-12-29T16:45:28.867Z,82.76
2022-12-29T16:48:14.494Z,82.22
2022-12-29T16:50:50.477Z,81.90
2022-12-29T16:53:25.564Z,81.84
2022-12-29T16:56:23.507Z,81.69
2022-12-29T16:58:59.611Z,82.00
2022-12-29T17:01:32.551Z,81.63
2022-12-29T17:04:05.826Z,81.41
2022-12-29T17:06:39.497Z,81.24
2022-12-29T17:09:20.565Z,80.74
2022-12-29T17:12:10.434Z,80.60
2022-12-29T17:14:53.840Z,80.08
2022-12-29T17:17:50.529Z,80.30
2022-12-29T17:20:25.873Z,79.93
2022-12-29T17:23:00.477Z,80.02
2022-12-29T17:25:44.537Z,79.85
2022-12-29T17:28:27.592Z,79.49
2022-12-29T17:31:10.482Z,79.57
2022-12-29T17:33:46.523Z,79.45
2022-12-29T17:36:13.313Z,79.61
2022-12-29T17:38:46.453Z,79.51
2022-12-29T17:41:21.598Z,79.39
2022-12-29T17:43:54.545Z,79.34
2022-12-29T17:46:21.459Z,78.89
2022-12-29T17:48:54.625Z,79.08
2022-12-29T17:51:22.651Z,78.80
2022-12-29T17:53:50.403Z,78.27
2022-12-29T17:56:23.530Z,78.30
2022-12-29T17:58:50.703Z,78.48
2022-12-29T18:01:32.553Z,78.36
2022-12-29T18:04:09.533Z,77.90
2022-12-29T18:06:42.538Z,77.51
2022-12-29T18:09:10.799Z,78.00
2022-12-29T18:11:49.494Z,78.41
2022-12-29T18:14:17.393Z,78.04
2022-12-29T18:16:50.593Z,77.79
2022-12-29T18:19:17.372Z,77.96
2022-12-29T18:21:50.545Z,77.89
2022-12-29T18:24:23.543Z,78.22
2022-12-29T18:26:57.672Z,77.88
2022-12-29T18:29:30.594Z,78.01
2022-12-29T18:32:03.508Z,78.01
2022-12-29T18:34:36.721Z,77.77
2022-12-29T18:37:10.621Z,77.90
2022-12-29T18:39:37.414Z,77.49
2022-12-29T18:42:05.227Z,77.92
2022-12-29T18:44:38.542Z,77.74
2022-12-29T18:47:07.049Z,77.90
2022-12-29T18:49:33.803Z,77.98
2022-12-29T18:52:06.555Z,77.67
2022-12-29T18:54:34.290Z,78.05
2022-12-29T18:57:07.578Z,77.69
2022-12-29T18:59:34.287Z,77.73
2022-12-29T19:02:07.617Z,77.70
2022-12-29T19:04:40.711Z,77.56
2022-12-29T19:07:13.540Z,77.59
2022-12-29T19:09:40.298Z,77.83
2022-12-29T19:12:13.565Z,77.71
2022-12-29T19:14:40.343Z,77.99
2022-12-29T19:17:18.513Z,77.82
2022-12-29T19:19:51.606Z,77.72
2022-12-29T19:22:24.560Z,77.66
2022-12-29T19:25:00.163Z,77.45
2022-12-29T19:27:34.928Z,77.40
2022-12-29T19:30:10.628Z,77.20
2022-12-29T19:32:43.653Z,76.72
2022-12-29T19:35:11.753Z,76.99
2022-12-29T19:37:47.645Z,76.85
2022-12-29T19:40:23.588Z,77.01
2022-12-29T19:42:51.255Z,76.94
2022-12-29T19:45:24.819Z,77.35
2022-12-29T19:47:53.246Z,76.83
2022-12-29T19:50:26.782Z,76.93
2022-12-29T19:53:01.837Z,77.04
2022-12-29T19:55:38.584Z,77.02
2022-12-29T19:58:05.321Z,76.78
2022-12-29T20:00:38.665Z,76.74
2022-12-29T20:03:05.385Z,76.65
2022-12-29T20:05:38.600Z,76.88
2022-12-29T20:11:43.556Z,77.31
2022-12-29T20:14:10.117Z,77.12
2022-12-29T20:17:08.857Z,77.01
2022-12-29T20:19:37.556Z,76.62
2022-12-29T20:22:12.622Z,76.81
2022-12-29T20:24:43.883Z,76.76
2022-12-29T20:27:27.607Z,76.81
2022-12-29T20:29:54.345Z,76.87
2022-12-29T20:32:29.800Z,76.69
2022-12-29T20:34:56.623Z,76.79
2022-12-29T20:37:29.614Z,76.51
2022-12-29T20:40:02.611Z,76.62
2022-12-29T20:42:29.399Z,76.59
2022-12-29T20:45:02.591Z,76.46
2022-12-29T20:47:29.259Z,76.68
2022-12-29T20:50:02.658Z,77.08
2022-12-29T20:52:35.835Z,76.83
2022-12-29T20:55:09.762Z,77.22
2022-12-29T20:58:13.668Z,77.24
2022-12-29T21:00:29.797Z,77.26
2022-12-29T21:02:58.065Z,77.29
2022-12-29T21:05:31.826Z,77.39
2022-12-29T21:07:59.876Z,77.75
2022-12-29T21:10:33.618Z,77.86
2022-12-29T21:13:08.649Z,77.69
2022-12-29T21:15:41.626Z,77.80
2022-12-29T21:18:14.630Z,78.00
2022-12-29T21:20:48.729Z,78.04
2022-12-29T21:23:21.634Z,77.95
2022-12-29T21:25:55.743Z,78.22
2022-12-29T21:28:35.814Z,77.97
2022-12-29T21:31:28.219Z,77.92
2022-12-29T21:34:02.663Z,78.34
2022-12-29T21:36:30.385Z,78.17
2022-12-29T21:39:04.613Z,78.18
2022-12-29T21:41:32.050Z,78.18
2022-12-29T21:44:23.587Z,78.39
2022-12-29T21:46:58.855Z,78.39
2022-12-29T21:49:33.641Z,78.46
2022-12-29T21:52:00.318Z,78.62
2022-12-29T21:54:53.661Z,78.63
2022-12-29T21:57:38.611Z,78.70
2022-12-29T22:00:32.616Z,78.50
2022-12-29T22:03:22.910Z,78.64
2022-12-29T22:06:16.623Z,78.86
2022-12-29T22:09:03.330Z,79.00
2022-12-29T22:11:55.688Z,79.04
2022-12-29T22:14:28.689Z,78.75
2022-12-29T22:16:55.389Z,78.91
2022-12-29T22:19:28.636Z,79.04
2022-12-29T22:22:01.651Z,79.06
2022-12-29T22:24:28.328Z,79.20
2022-12-29T22:27:09.981Z,78.95
2022-12-29T22:29:43.015Z,79.01
2022-12-29T22:32:15.694Z,78.99
2022-12-29T22:34:48.599Z,79.20
2022-12-29T22:37:16.260Z,79.36
2022-12-29T22:39:49.681Z,79.42
2022-12-29T22:42:16.264Z,79.36
2022-12-29T22:44:49.654Z,79.38
2022-12-29T22:47:16.373Z,79.07
2022-12-29T22:49:49.614Z,78.98
2022-12-29T22:52:22.658Z,79.01
2022-12-29T22:54:56.744Z,79.26
2022-12-29T22:57:31.699Z,78.99
2022-12-29T22:59:58.394Z,79.01
2022-12-29T23:02:31.906Z,79.14
2022-12-29T23:05:03.679Z,79.02
2022-12-29T23:07:37.665Z,79.31
2022-12-29T23:10:05.669Z,79.27
2022-12-29T23:12:39.642Z,78.94
2022-12-29T23:15:06.892Z,78.89
2022-12-29T23:17:39.678Z,78.83
2022-12-29T23:20:07.666Z,79.16
2022-12-29T23:22:40.681Z,79.08
2022-12-29T23:25:07.789Z,78.91
2022-12-29T23:27:40.651Z,79.17
2022-12-29T23:30:07.996Z,79.15
2022-12-29T23:32:41.727Z,79.50
2022-12-29T23:35:09.906Z,79.27
2022-12-29T23:37:42.660Z,79.30
2022-12-29T23:40:16.808Z,79.37
2022-12-29T23:42:49.680Z,79.48
2022-12-29T23:45:22.753Z,79.44
2022-12-29T23:47:49.360Z,79.48
2022-12-29T23:50:22.716Z,79.40
2022-12-29T23:52:49.353Z,79.67
2022-12-29T23:55:22.714Z,79.38
2022-12-29T23:57:49.279Z,79.72
